createdAt,value
2022-11-24T00:01:19.069Z,17.50
2022-11-24T00:03:52.486Z,17.85
2022-11-24T00:06:20.110Z,17.83
2022-11-24T00:08:47.854Z,18.30
2022-11-24T00:11:21.026Z,17.58
2022-11-24T00:13:49.099Z,18.00
2022-11-24T00:16:24.940Z,16.85
2022-11-24T00:18:54.570Z,17.20
2022-11-24T00:21:22.915Z,17.50
2022-11-24T00:23:51.577Z,17.35
2022-11-24T00:26:21.729Z,18.20
2022-11-24T00:28:53.594Z,16.67
2022-11-24T00:31:24.158Z,17.65
2022-11-24T00:33:54.679Z,17.48
2022-11-24T00:36:24.482Z,18.45
2022-11-24T00:38:56.814Z,18.30
2022-11-24T00:41:25.877Z,18.90
2022-11-24T00:43:54.284Z,19.10
2022-11-24T00:46:23.005Z,18.83
2022-11-24T00:48:51.315Z,19.63
2022-11-24T00:51:20.470Z,18.98
2022-11-24T00:53:48.436Z,19.08
2022-11-24T00:56:16.110Z,18.58
2022-11-24T00:58:43.831Z,19.35
2022-11-24T01:01:16.931Z,18.00
2022-11-24T01:03:45.309Z,19.10
2022-11-24T01:06:16.265Z,19.10
2022-11-24T01:11:20.700Z,20.35
2022-11-24T01:13:51.562Z,20.48
2022-11-24T01:16:26.404Z,21.13
2022-11-24T01:18:54.867Z,20.58
2022-11-24T01:21:23.294Z,20.90
2022-11-24T01:23:51.542Z,21.63
2022-11-24T01:26:21.612Z,20.73
2022-11-24T01:28:54.398Z,21.57
2022-11-24T01:31:22.358Z,20.80
2022-11-24T01:33:50.112Z,21.00
2022-11-24T01:36:17.975Z,21.17
2022-11-24T01:38:45.747Z,21.20
2022-11-24T01:41:16.853Z,20.45
2022-11-24T01:43:45.699Z,21.52
2022-11-24T01:46:20.544Z,20.30
2022-11-24T01:49:03.996Z,20.55
2022-11-24T01:51:36.084Z,20.52
2022-11-24T01:54:11.548Z,21.58
2022-11-24T01:56:42.391Z,20.55
2022-11-24T01:59:14.191Z,22.15
2022-11-24T02:01:42.074Z,21.10
2022-11-24T02:04:15.037Z,20.65
2022-11-24T02:06:44.028Z,20.75
2022-11-24T02:09:25.579Z,20.75
2022-11-24T02:11:55.305Z,21.13
2022-11-24T02:14:25.093Z,20.25
2022-11-24T02:16:53.416Z,20.42
2022-11-24T02:19:32.772Z,21.40
2022-11-24T02:22:03.266Z,19.42
2022-11-24T02:24:41.929Z,19.58
2022-11-24T02:27:11.447Z,19.83
2022-11-24T02:29:40.275Z,19.38
2022-11-24T02:32:10.154Z,18.88
2022-11-24T02:34:37.858Z,19.60
2022-11-24T02:37:06.353Z,19.27
2022-11-24T02:39:34.567Z,19.25
2022-11-24T02:42:11.611Z,18.10
2022-11-24T02:44:47.702Z,18.63
2022-11-24T02:47:15.429Z,18.05
2022-11-24T02:49:43.167Z,18.15
2022-11-24T02:52:10.983Z,17.92
2022-11-24T02:54:38.686Z,17.98
2022-11-24T02:57:06.378Z,17.67
2022-11-24T02:59:34.020Z,17.30
2022-11-24T03:02:01.866Z,16.98
2022-11-24T03:04:29.645Z,16.80
2022-11-24T03:06:58.468Z,17.35
2022-11-24T03:09:26.101Z,16.40
2022-11-24T03:11:53.761Z,16.52
2022-11-24T03:14:21.431Z,17.00
2022-11-24T03:16:49.092Z,17.10
2022-11-24T03:19:16.787Z,17.30
2022-11-24T03:21:44.449Z,17.20
2022-11-24T03:24:12.088Z,17.25
2022-11-24T03:26:40.006Z,17.55
2022-11-24T03:29:08.185Z,17.50
2022-11-24T03:31:35.901Z,17.65
2022-11-24T03:34:03.576Z,17.60
2022-11-24T03:36:31.226Z,17.15
2022-11-24T03:38:58.896Z,17.42
2022-11-24T03:41:26.844Z,17.38
2022-11-24T03:43:54.490Z,17.25
2022-11-24T03:46:22.186Z,16.85
2022-11-24T03:48:49.868Z,16.73
2022-11-24T03:51:17.515Z,16.45
2022-11-24T03:53:45.255Z,16.65
2022-11-24T03:56:13.439Z,16.92
2022-11-24T03:58:41.129Z,16.92
2022-11-24T04:01:09.305Z,17.45
2022-11-24T04:03:36.968Z,16.25
2022-11-24T04:06:04.659Z,17.27
2022-11-24T04:08:32.361Z,18.00
2022-11-24T04:11:00.212Z,18.10
2022-11-24T04:13:28.501Z,17.85
2022-11-24T04:15:56.190Z,17.50
2022-11-24T04:18:24.047Z,17.67
2022-11-24T04:20:52.410Z,17.90
2022-11-24T04:23:20.145Z,17.67
2022-11-24T04:25:47.876Z,17.20
2022-11-24T04:28:15.553Z,17.30
2022-11-24T04:30:45.238Z,17.00
2022-11-24T04:33:13.583Z,16.80
2022-11-24T04:35:41.372Z,17.00
2022-11-24T04:38:09.169Z,17.17
2022-11-24T04:40:37.523Z,17.48
2022-11-24T04:43:05.348Z,17.23
2022-11-24T04:45:33.826Z,18.08
2022-11-24T04:48:02.415Z,17.50
2022-11-24T04:50:30.125Z,17.58
2022-11-24T04:52:57.927Z,18.38
2022-11-24T04:55:25.551Z,18.23
2022-11-24T04:57:53.213Z,18.20
2022-11-24T05:00:21.766Z,18.45
2022-11-24T05:02:49.412Z,19.60
2022-11-24T05:05:17.120Z,18.38
2022-11-24T05:07:44.867Z,19.73
2022-11-24T05:10:31.361Z,19.83
2022-11-24T05:12:59.873Z,20.17
2022-11-24T05:15:27.846Z,19.38
2022-11-24T05:17:55.666Z,19.33
2022-11-24T05:20:23.567Z,21.17
2022-11-24T05:22:51.617Z,19.85
2022-11-24T05:25:19.330Z,20.60
2022-11-24T05:27:47.000Z,19.77
2022-11-24T05:30:14.829Z,20.38
2022-11-24T05:32:42.868Z,20.52
2022-11-24T05:35:10.505Z,20.23
2022-11-24T05:37:38.503Z,20.40
2022-11-24T05:40:07.099Z,20.23
2022-11-24T05:42:46.173Z,20.17
2022-11-24T05:45:17.917Z,20.05
2022-11-24T05:47:45.954Z,20.50
2022-11-24T05:50:16.363Z,20.25
2022-11-24T05:52:44.017Z,20.02
2022-11-24T05:55:12.801Z,20.20
2022-11-24T05:57:40.476Z,20.90
2022-11-24T06:00:10.094Z,19.98
2022-11-24T06:02:41.578Z,20.60
2022-11-24T06:05:09.503Z,20.30
2022-11-24T06:07:37.247Z,19.95
2022-11-24T06:10:05.751Z,19.63
2022-11-24T06:12:33.420Z,20.20
2022-11-24T06:15:01.070Z,21.50
2022-11-24T06:17:29.444Z,20.85
2022-11-24T06:19:57.132Z,20.38
2022-11-24T06:22:24.986Z,19.25
2022-11-24T06:24:53.221Z,20.42
2022-11-24T06:27:20.905Z,19.80
2022-11-24T06:29:48.651Z,19.80
2022-11-24T06:32:16.354Z,19.05
2022-11-24T06:34:44.643Z,18.70
2022-11-24T06:37:12.853Z,17.55
2022-11-24T06:39:40.688Z,18.00
2022-11-24T06:42:08.962Z,17.85
2022-11-24T06:44:36.916Z,18.10
2022-11-24T06:47:05.662Z,18.10
2022-11-24T06:49:33.330Z,18.40
2022-11-24T06:52:01.101Z,19.00
2022-11-24T06:54:28.824Z,18.77
2022-11-24T06:56:58.289Z,19.20
2022-11-24T06:59:26.822Z,18.15
2022-11-24T07:01:54.485Z,18.00
2022-11-24T07:04:22.153Z,17.73
2022-11-24T07:06:49.838Z,17.52
2022-11-24T07:09:17.522Z,18.00
2022-11-24T07:11:45.188Z,18.33
2022-11-24T07:14:12.986Z,18.27
2022-11-24T07:16:40.930Z,18.60
2022-11-24T07:19:10.648Z,19.92
2022-11-24T07:21:38.334Z,19.05
2022-11-24T07:24:06.695Z,19.25
2022-11-24T07:26:37.606Z,19.70
2022-11-24T07:29:05.732Z,18.85
2022-11-24T07:31:33.567Z,18.40
2022-11-24T07:34:01.367Z,18.38
2022-11-24T07:36:29.237Z,19.27
2022-11-24T07:38:56.934Z,19.23
2022-11-24T07:41:24.710Z,18.85
2022-11-24T07:43:53.273Z,18.83
2022-11-24T07:46:21.131Z,20.85
2022-11-24T07:48:48.907Z,21.15
2022-11-24T07:51:16.631Z,21.35
2022-11-24T07:53:45.547Z,20.10
2022-11-24T07:56:13.421Z,20.65
2022-11-24T07:58:41.175Z,20.17
2022-11-24T08:01:18.838Z,19.80
2022-11-24T08:03:47.399Z,19.88
2022-11-24T08:06:26.181Z,20.63
2022-11-24T08:08:57.404Z,21.50
2022-11-24T08:11:25.676Z,20.13
2022-11-24T08:13:53.455Z,21.60
2022-11-24T08:16:21.219Z,21.02
2022-11-24T08:18:51.176Z,21.23
2022-11-24T08:21:19.622Z,21.10
2022-11-24T08:23:47.287Z,21.13
2022-11-24T08:26:19.048Z,19.92
2022-11-24T08:28:48.129Z,20.48
2022-11-24T08:31:21.334Z,20.88
2022-11-24T08:33:49.195Z,20.58
2022-11-24T08:36:19.235Z,22.08
2022-11-24T08:38:49.103Z,21.45
2022-11-24T08:41:17.836Z,21.15
2022-11-24T08:43:45.519Z,21.48
2022-11-24T08:46:17.312Z,21.90
2022-11-24T08:48:49.126Z,20.73
2022-11-24T08:51:19.596Z,21.60
2022-11-24T08:53:47.522Z,21.63
2022-11-24T08:56:15.559Z,22.42
2022-11-24T08:58:43.380Z,21.27
2022-11-24T09:01:14.708Z,21.90
2022-11-24T09:03:50.360Z,21.52
2022-11-24T09:06:25.153Z,21.60
2022-11-24T09:08:56.246Z,21.15
2022-11-24T09:13:52.817Z,21.17
2022-11-24T09:16:26.930Z,21.25
2022-11-24T09:19:00.268Z,20.63
2022-11-24T09:21:29.392Z,21.23
2022-11-24T09:23:57.438Z,22.40
2022-11-24T09:26:31.091Z,22.20
2022-11-24T09:29:00.740Z,22.58
2022-11-24T09:31:34.661Z,21.25
2022-11-24T09:34:04.980Z,22.17
2022-11-24T09:36:32.750Z,23.33
2022-11-24T09:39:00.575Z,23.45
2022-11-24T09:42:00.554Z,24.00
2022-11-24T09:44:40.185Z,24.08
2022-11-24T09:47:23.016Z,23.38
2022-11-24T09:50:02.390Z,23.85
2022-11-24T09:52:41.301Z,24.08
2022-11-24T09:55:58.552Z,23.73
2022-11-24T09:58:45.094Z,23.60
2022-11-24T10:01:26.606Z,23.63
2022-11-24T10:03:55.204Z,24.00
2022-11-24T10:06:34.893Z,23.40
2022-11-24T10:09:35.177Z,23.58
2022-11-24T10:12:24.756Z,21.87
2022-11-24T10:15:33.629Z,23.33
2022-11-24T10:18:16.697Z,22.38
2022-11-24T10:20:55.068Z,23.00
2022-11-24T10:23:56.885Z,22.13
2022-11-24T10:26:39.593Z,21.92
2022-11-24T10:29:13.969Z,22.90
2022-11-24T10:31:43.971Z,20.67
2022-11-24T10:34:24.851Z,18.40
2022-11-24T10:37:16.785Z,21.08
2022-11-24T10:40:05.851Z,20.70
2022-11-24T10:42:37.286Z,19.75
2022-11-24T10:45:14.503Z,19.63
2022-11-24T10:47:43.717Z,19.88
2022-11-24T10:50:24.671Z,21.02
2022-11-24T10:53:04.269Z,21.55
2022-11-24T10:55:57.181Z,20.20
2022-11-24T10:58:37.635Z,20.77
2022-11-24T11:01:31.955Z,20.08
2022-11-24T11:04:00.250Z,20.92
2022-11-24T11:06:32.367Z,20.58
2022-11-24T11:09:08.899Z,19.75
2022-11-24T11:11:39.432Z,20.23
2022-11-24T11:14:10.643Z,20.48
2022-11-24T11:16:42.591Z,19.63
2022-11-24T11:20:01.767Z,19.40
2022-11-24T11:22:31.406Z,20.27
2022-11-24T11:25:24.610Z,19.60
2022-11-24T11:28:30.919Z,19.65
2022-11-24T11:31:22.810Z,18.48
2022-11-24T11:34:06.369Z,18.40
2022-11-24T11:36:42.255Z,20.52
2022-11-24T11:39:32.203Z,19.25
2022-11-24T11:43:00.086Z,19.40
2022-11-24T11:45:35.009Z,19.85
2022-11-24T11:48:03.166Z,19.00
2022-11-24T11:53:48.565Z,19.80
2022-11-24T11:56:35.045Z,20.08
2022-11-24T11:59:14.561Z,22.42
2022-11-24T12:01:42.383Z,20.85
2022-11-24T12:04:15.759Z,21.40
2022-11-24T12:07:02.009Z,20.75
2022-11-24T12:09:53.962Z,21.10
2022-11-24T12:12:45.920Z,21.58
2022-11-24T12:15:37.248Z,20.90
2022-11-24T12:18:48.662Z,21.50
2022-11-24T12:21:08.707Z,20.15
2022-11-24T12:23:43.942Z,19.85
2022-11-24T12:26:32.744Z,20.38
2022-11-24T12:29:43.002Z,19.88
2022-11-24T12:32:41.516Z,19.15
2022-11-24T12:35:28.228Z,19.48
2022-11-24T12:38:07.655Z,19.27
2022-11-24T12:44:03.144Z,19.70
2022-11-24T12:46:36.631Z,19.10
2022-11-24T12:49:23.192Z,18.10
2022-11-24T12:52:01.526Z,19.13
2022-11-24T12:54:38.253Z,18.40
2022-11-24T12:57:10.890Z,19.83
2022-11-24T12:59:57.989Z,20.42
2022-11-24T13:02:25.731Z,20.13
2022-11-24T13:05:03.507Z,19.67
2022-11-24T13:07:46.987Z,20.40
2022-11-24T13:10:46.471Z,20.33
2022-11-24T13:13:23.611Z,19.67
2022-11-24T13:18:53.674Z,19.48
2022-11-24T13:21:30.610Z,20.70
2022-11-24T13:24:00.189Z,19.98
2022-11-24T13:26:41.498Z,20.20
2022-11-24T13:29:30.637Z,20.08
2022-11-24T13:32:01.281Z,19.00
2022-11-24T13:34:40.952Z,18.58
2022-11-24T13:37:35.174Z,19.30
2022-11-24T13:40:12.559Z,19.70
2022-11-24T13:42:56.438Z,19.90
2022-11-24T13:45:39.520Z,19.83
2022-11-24T13:48:19.925Z,20.23
2022-11-24T13:50:51.237Z,18.83
2022-11-24T13:53:36.133Z,19.25
2022-11-24T13:56:08.928Z,19.63
2022-11-24T13:58:39.533Z,19.25
2022-11-24T14:01:13.260Z,19.10
2022-11-24T14:04:29.136Z,20.15
2022-11-24T14:07:08.338Z,20.17
2022-11-24T14:09:45.949Z,20.25
2022-11-24T14:12:15.886Z,20.60
2022-11-24T14:14:45.425Z,20.23
2022-11-24T14:17:13.234Z,20.27
2022-11-24T14:19:46.260Z,19.77
2022-11-24T14:22:23.269Z,20.05
2022-11-24T14:24:58.819Z,20.42
2022-11-24T14:27:34.486Z,19.50
2022-11-24T14:30:10.717Z,19.52
2022-11-24T14:32:38.425Z,20.80
2022-11-24T14:35:26.382Z,20.83
2022-11-24T14:37:54.497Z,20.88
2022-11-24T14:40:38.402Z,20.00
2022-11-24T14:43:15.623Z,21.15
2022-11-24T14:45:56.155Z,20.02
2022-11-24T14:48:29.782Z,19.35
2022-11-24T14:51:18.463Z,20.02
2022-11-24T14:53:49.165Z,19.58
2022-11-24T14:56:19.505Z,19.60
2022-11-24T14:58:47.177Z,20.77
2022-11-24T15:01:27.273Z,20.35
2022-11-24T15:04:32.834Z,20.07
2022-11-24T15:07:26.351Z,20.75
2022-11-24T15:09:58.364Z,20.33
2022-11-24T15:12:35.036Z,19.77
2022-11-24T15:15:16.143Z,19.92
2022-11-24T15:20:44.631Z,19.35
2022-11-24T15:23:21.633Z,18.83
2022-11-24T15:25:56.408Z,19.00
2022-11-24T15:28:26.203Z,18.70
2022-11-24T15:30:57.213Z,18.45
2022-11-24T15:35:52.553Z,19.70
2022-11-24T15:38:21.073Z,19.35
2022-11-24T15:40:52.106Z,19.48
2022-11-24T15:45:47.196Z,17.77
2022-11-24T15:48:17.984Z,17.55
2022-11-24T15:50:47.550Z,18.63
2022-11-24T15:53:36.665Z,18.80
2022-11-24T15:56:07.811Z,18.50
2022-11-24T15:58:35.560Z,18.23
2022-11-24T16:01:03.281Z,18.48
2022-11-24T16:03:48.253Z,19.13
2022-11-24T16:06:25.339Z,19.58
2022-11-24T16:08:54.423Z,18.80
2022-11-24T16:11:23.088Z,19.13
2022-11-24T16:13:54.033Z,18.88
2022-11-24T16:16:25.485Z,18.73
2022-11-24T16:18:53.339Z,19.60
2022-11-24T16:21:21.052Z,19.02
2022-11-24T16:23:48.958Z,19.20
2022-11-24T16:26:16.635Z,18.73
2022-11-24T16:28:45.995Z,18.48
2022-11-24T16:31:16.215Z,18.95
2022-11-24T16:33:47.378Z,19.77
2022-11-24T16:36:15.132Z,19.58
2022-11-24T16:38:42.843Z,19.63
2022-11-24T16:41:10.760Z,19.13
2022-11-24T16:43:38.894Z,19.27
2022-11-24T16:46:17.250Z,20.13
2022-11-24T16:48:50.322Z,19.85
2022-11-24T16:51:22.356Z,19.48
2022-11-24T16:53:58.695Z,20.15
2022-11-24T16:56:27.905Z,20.15
2022-11-24T16:58:55.698Z,19.80
2022-11-24T17:01:23.966Z,20.92
2022-11-24T17:03:52.003Z,20.42
2022-11-24T17:06:19.993Z,20.77
2022-11-24T17:08:48.444Z,20.15
2022-11-24T17:11:21.794Z,19.13
2022-11-24T17:13:49.972Z,20.00
2022-11-24T17:16:20.348Z,19.20
2022-11-24T17:18:48.518Z,19.23
2022-11-24T17:21:21.272Z,19.02
2022-11-24T17:23:54.458Z,19.30
2022-11-24T17:26:22.859Z,19.40
2022-11-24T17:28:50.593Z,20.42
2022-11-24T17:31:27.443Z,20.02
2022-11-24T17:33:57.738Z,19.27
2022-11-24T17:36:25.826Z,19.00
2022-11-24T17:38:53.876Z,19.17
2022-11-24T17:41:22.420Z,18.73
2022-11-24T17:43:51.722Z,19.73
2022-11-24T17:46:19.897Z,20.65
2022-11-24T17:48:47.923Z,20.80
2022-11-24T17:51:20.595Z,20.40
2022-11-24T17:53:50.035Z,20.63
2022-11-24T17:56:20.366Z,20.05
2022-11-24T17:58:48.092Z,20.30
2022-11-24T18:01:15.752Z,19.55
2022-11-24T18:03:43.584Z,19.40
2022-11-24T18:06:13.590Z,19.73
2022-11-24T18:08:44.210Z,19.33
2022-11-24T18:11:17.455Z,19.42
2022-11-24T18:14:01.675Z,18.70
2022-11-24T18:16:31.926Z,19.20
2022-11-24T18:19:10.422Z,17.42
2022-11-24T18:21:43.885Z,18.00
2022-11-24T18:24:12.658Z,17.85
2022-11-24T18:26:41.779Z,17.92
2022-11-24T18:29:10.964Z,17.58
2022-11-24T18:31:39.162Z,17.48
2022-11-24T18:34:07.689Z,17.08
2022-11-24T18:36:35.839Z,17.50
2022-11-24T18:39:05.460Z,17.13
2022-11-24T18:41:33.664Z,17.08
2022-11-24T18:44:04.002Z,17.15
2022-11-24T18:46:33.157Z,17.10
2022-11-24T18:49:01.172Z,16.33
2022-11-24T18:51:28.907Z,16.35
2022-11-24T18:53:59.678Z,16.70
2022-11-24T18:56:27.657Z,16.67
2022-11-24T18:58:56.926Z,16.30
2022-11-24T19:01:27.189Z,16.70
2022-11-24T19:03:58.041Z,16.17
2022-11-24T19:06:34.085Z,16.48
2022-11-24T19:09:07.724Z,16.25
2022-11-24T19:11:37.535Z,16.60
2022-11-24T19:14:07.246Z,16.42
2022-11-24T19:16:36.073Z,16.42
2022-11-24T19:19:04.581Z,16.90
2022-11-24T19:21:39.038Z,16.05
2022-11-24T19:24:10.729Z,16.80
2022-11-24T19:26:40.834Z,16.42
2022-11-24T19:29:10.097Z,16.02
2022-11-24T19:31:46.292Z,15.98
2022-11-24T19:34:18.223Z,16.60
2022-11-24T19:36:46.206Z,15.48
2022-11-24T19:39:15.635Z,16.02
2022-11-24T19:41:44.488Z,15.95
2022-11-24T19:44:12.727Z,15.52
2022-11-24T19:46:40.895Z,16.38
2022-11-24T19:49:09.110Z,16.67
2022-11-24T19:51:39.244Z,16.60
2022-11-24T19:54:10.472Z,15.63
2022-11-24T19:56:38.200Z,16.20
2022-11-24T19:59:06.627Z,16.73
2022-11-24T20:01:40.052Z,16.52
2022-11-24T20:04:13.772Z,16.83
2022-11-24T20:06:43.596Z,16.35
2022-11-24T20:09:16.899Z,16.33
2022-11-24T20:11:45.173Z,15.98
2022-11-24T20:14:14.349Z,16.02
2022-11-24T20:16:42.118Z,16.15
2022-11-24T20:19:14.326Z,16.10
2022-11-24T20:21:46.399Z,15.88
2022-11-24T20:24:17.725Z,15.70
2022-11-24T20:26:51.289Z,16.05
2022-11-24T20:29:19.409Z,16.70
2022-11-24T20:31:50.195Z,16.13
2022-11-24T20:34:18.334Z,15.65
2022-11-24T20:36:47.188Z,16.05
2022-11-24T20:39:21.189Z,15.82
2022-11-24T20:41:49.607Z,16.70
2022-11-24T20:44:19.775Z,16.40
2022-11-24T20:46:48.019Z,16.30
2022-11-24T20:49:18.233Z,17.25
2022-11-24T20:51:49.402Z,16.67
2022-11-24T20:54:18.333Z,16.67
2022-11-24T20:56:47.120Z,16.85
2022-11-24T20:59:17.884Z,17.70
2022-11-24T21:01:46.761Z,19.02
2022-11-24T21:04:20.624Z,18.15
2022-11-24T21:06:48.677Z,18.38
2022-11-24T21:09:16.819Z,18.42
2022-11-24T21:11:44.524Z,17.55
2022-11-24T21:14:12.433Z,17.30
2022-11-24T21:16:42.163Z,17.83
2022-11-24T21:19:15.267Z,18.55
2022-11-24T21:21:43.348Z,17.90
2022-11-24T21:24:16.741Z,18.08
2022-11-24T21:26:47.927Z,17.73
2022-11-24T21:29:22.426Z,17.50
2022-11-24T21:31:50.225Z,17.27
2022-11-24T21:34:19.380Z,17.30
2022-11-24T21:36:47.823Z,17.05
2022-11-24T21:39:16.384Z,17.67
2022-11-24T21:41:44.665Z,16.98
2022-11-24T21:44:13.621Z,17.52
2022-11-24T21:46:46.144Z,16.98
2022-11-24T21:49:17.112Z,16.52
2022-11-24T21:51:44.752Z,16.80
2022-11-24T21:54:12.483Z,17.60
2022-11-24T21:56:40.121Z,16.75
2022-11-24T21:59:08.550Z,16.77
2022-11-24T22:01:37.502Z,16.67
2022-11-24T22:04:05.417Z,16.17
2022-11-24T22:06:33.479Z,16.63
2022-11-24T22:09:01.181Z,16.38
2022-11-24T22:11:28.868Z,15.93
2022-11-24T22:13:56.503Z,15.55
2022-11-24T22:16:24.919Z,16.00
2022-11-24T22:18:52.850Z,15.52
2022-11-24T22:21:24.038Z,16.08
2022-11-24T22:23:52.916Z,16.48
2022-11-24T22:26:22.665Z,16.70
2022-11-24T22:28:51.075Z,16.30
2022-11-24T22:31:21.791Z,17.20
2022-11-24T22:33:50.434Z,16.08
2022-11-24T22:36:22.701Z,16.35
2022-11-24T22:38:58.979Z,16.30
2022-11-24T22:41:26.630Z,16.55
2022-11-24T22:43:54.590Z,16.05
2022-11-24T22:46:24.986Z,15.93
2022-11-24T22:48:54.137Z,15.85
2022-11-24T22:51:24.971Z,15.82
2022-11-24T22:53:55.237Z,16.80
2022-11-24T22:56:23.928Z,16.60
2022-11-24T22:58:52.364Z,16.50
2022-11-24T23:01:22.969Z,15.93
2022-11-24T23:03:54.740Z,15.80
2022-11-24T23:06:25.180Z,16.00
2022-11-24T23:08:53.883Z,15.50
2022-11-24T23:11:34.892Z,15.68
2022-11-24T23:14:07.617Z,16.17
2022-11-24T23:16:36.121Z,14.77
2022-11-24T23:19:05.002Z,16.10
2022-11-24T23:21:35.537Z,16.23
2022-11-24T23:24:05.719Z,16.15
2022-11-24T23:26:37.582Z,15.40
2022-11-24T23:29:06.564Z,15.85
2022-11-24T23:31:35.271Z,15.82
2022-11-24T23:34:05.004Z,16.25
2022-11-24T23:36:34.044Z,15.77
2022-11-24T23:39:12.501Z,16.15
2022-11-24T23:41:41.575Z,15.55
2022-11-24T23:44:10.142Z,16.15
2022-11-24T23:46:38.540Z,15.98
2022-11-24T23:49:06.985Z,16.15
2022-11-24T23:51:35.878Z,15.80
2022-11-24T23:54:09.051Z,15.88
2022-11-24T23:56:37.432Z,15.57
2022-11-24T23:59:06.068Z,15.77
